createdAt,value
2023-03-27T00:00:10.085Z,77.61
2023-03-27T00:01:09.983Z,77.61
2023-03-27T00:02:10.017Z,77.92
2023-03-27T00:03:10.014Z,77.92
2023-03-27T00:04:10.099Z,78.06
2023-03-27T00:05:10.042Z,77.92
2023-03-27T00:06:09.963Z,78.02
2023-03-27T00:07:09.912Z,78.33
2023-03-27T00:08:09.940Z,77.92
2023-03-27T00:09:09.892Z,77.95
2023-03-27T00:10:09.961Z,77.33
2023-03-27T00:11:09.884Z,77.85
2023-03-27T00:12:09.863Z,78.27
2023-03-27T00:13:09.857Z,78.68
2023-03-27T00:14:09.941Z,79.20
2023-03-27T00:15:09.883Z,79.51
2023-03-27T00:16:09.946Z,79.41
2023-03-27T00:17:09.813Z,79.30
2023-03-27T00:18:09.846Z,78.99
2023-03-27T00:19:09.836Z,79.10
2023-03-27T00:20:09.907Z,79.20
2023-03-27T00:21:09.776Z,79.75
2023-03-27T00:22:09.816Z,79.13
2023-03-27T00:23:09.743Z,78.82
2023-03-27T00:24:09.932Z,78.82
2023-03-27T00:25:09.732Z,78.82
2023-03-27T00:26:09.847Z,78.72
2023-03-27T00:27:09.694Z,78.61
2023-03-27T00:28:09.776Z,78.09
2023-03-27T00:29:09.689Z,77.99
2023-03-27T00:30:09.713Z,78.09
2023-03-27T00:31:09.712Z,78.51
2023-03-27T00:32:09.726Z,78.41
2023-03-27T00:33:09.663Z,78.86
2023-03-27T00:34:09.732Z,79.17
2023-03-27T00:35:09.610Z,79.48
2023-03-27T00:36:09.671Z,79.38
2023-03-27T00:37:09.605Z,80.21
2023-03-27T00:38:09.602Z,80.10
2023-03-27T00:39:09.581Z,80.24
2023-03-27T00:40:09.719Z,80.04
2023-03-27T00:41:09.568Z,80.45
2023-03-27T00:42:09.608Z,80.24
2023-03-27T00:43:09.530Z,80.76
2023-03-27T00:44:09.586Z,80.24
2023-03-27T00:45:09.571Z,79.83
2023-03-27T00:46:09.567Z,79.93
2023-03-27T00:47:09.500Z,79.93
2023-03-27T00:48:09.477Z,80.04
2023-03-27T00:49:09.467Z,80.66
2023-03-27T00:50:09.471Z,80.45
2023-03-27T00:51:09.467Z,80.66
2023-03-27T00:52:09.510Z,81.07
2023-03-27T00:53:09.426Z,80.87
2023-03-27T00:54:09.685Z,80.97
2023-03-27T00:55:09.422Z,81.52
2023-03-27T00:56:09.437Z,82.25
2023-03-27T00:57:09.505Z,82.87
2023-03-27T00:58:09.566Z,83.22
2023-03-27T00:59:09.402Z,83.53
2023-03-27T01:00:09.635Z,83.53
2023-03-27T01:01:09.408Z,83.74
2023-03-27T01:02:09.379Z,84.16
2023-03-27T01:03:09.421Z,84.51
2023-03-27T01:04:09.432Z,85.24
2023-03-27T01:05:09.296Z,85.13
2023-03-27T01:06:09.371Z,85.13
2023-03-27T01:07:09.301Z,85.34
2023-03-27T01:08:09.367Z,85.75
2023-03-27T01:09:09.349Z,85.65
2023-03-27T01:10:09.315Z,85.65
2023-03-27T01:11:09.234Z,85.65
2023-03-27T01:12:09.237Z,85.96
2023-03-27T01:13:09.233Z,85.86
2023-03-27T01:14:09.256Z,85.86
2023-03-27T01:15:09.180Z,85.75
2023-03-27T01:16:09.292Z,85.96
2023-03-27T01:17:09.242Z,85.86
2023-03-27T01:18:09.290Z,86.49
2023-03-27T01:19:09.248Z,86.27
2023-03-27T01:20:09.325Z,86.32
2023-03-27T01:21:09.137Z,86.32
2023-03-27T01:22:09.123Z,86.73
2023-03-27T01:23:09.113Z,86.52
2023-03-27T01:24:09.109Z,86.83
2023-03-27T01:25:09.068Z,86.73
2023-03-27T01:26:09.149Z,86.63
2023-03-27T01:27:09.095Z,86.73
2023-03-27T01:28:09.060Z,86.73
2023-03-27T01:29:09.092Z,86.73
2023-03-27T01:30:09.029Z,86.73
2023-03-27T01:31:09.044Z,86.94
2023-03-27T01:32:09.241Z,87.04
2023-03-27T01:33:09.055Z,86.73
2023-03-27T01:34:09.030Z,86.83
2023-03-27T01:35:08.958Z,86.94
2023-03-27T01:36:09.029Z,86.94
2023-03-27T01:37:08.959Z,86.73
2023-03-27T01:38:09.008Z,86.73
2023-03-27T01:39:08.957Z,86.83
2023-03-27T01:40:08.932Z,87.25
2023-03-27T01:41:09.013Z,87.15
2023-03-27T01:42:08.985Z,86.83
2023-03-27T01:43:08.930Z,87.15
2023-03-27T01:44:08.950Z,87.25
2023-03-27T01:45:08.884Z,87.15
2023-03-27T01:46:08.916Z,87.15
2023-03-27T01:47:08.839Z,87.25
2023-03-27T01:48:08.816Z,87.15
2023-03-27T01:49:08.962Z,86.94
2023-03-27T01:50:08.895Z,86.63
2023-03-27T01:51:08.929Z,86.52
2023-03-27T01:52:08.826Z,86.52
2023-03-27T01:53:08.793Z,86.67
2023-03-27T01:54:08.864Z,87.08
2023-03-27T01:55:08.845Z,86.83
2023-03-27T01:56:08.814Z,86.88
2023-03-27T01:57:08.810Z,86.83
2023-03-27T01:58:08.896Z,86.83
2023-03-27T01:59:08.727Z,86.98
2023-03-27T02:00:18.237Z,86.94
2023-03-27T02:01:10.085Z,86.94
2023-03-27T02:02:08.749Z,86.83
2023-03-27T02:03:08.656Z,86.52
2023-03-27T02:04:08.651Z,86.57
2023-03-27T02:05:08.723Z,86.73
2023-03-27T02:06:08.763Z,86.94
2023-03-27T02:07:08.676Z,86.42
2023-03-27T02:08:08.624Z,86.42
2023-03-27T02:09:08.637Z,86.52
2023-03-27T02:10:08.804Z,86.57
2023-03-27T02:11:08.639Z,86.88
2023-03-27T02:12:08.696Z,86.88
2023-03-27T02:13:08.566Z,86.77
2023-03-27T02:14:08.563Z,86.88
2023-03-27T02:15:08.631Z,86.88
2023-03-27T02:16:09.536Z,87.08
2023-03-27T02:17:08.506Z,87.08
2023-03-27T02:18:08.517Z,87.40
2023-03-27T02:19:08.632Z,87.60
2023-03-27T02:20:08.513Z,87.60
2023-03-27T02:21:08.555Z,87.65
2023-03-27T02:22:08.516Z,87.75
2023-03-27T02:23:08.567Z,87.96
2023-03-27T02:24:08.562Z,87.92
2023-03-27T02:25:08.426Z,87.50
2023-03-27T02:26:08.475Z,87.40
2023-03-27T02:27:08.409Z,87.50
2023-03-27T02:28:08.674Z,87.40
2023-03-27T02:29:08.454Z,87.50
2023-03-27T02:30:08.437Z,87.50
2023-03-27T02:31:32.779Z,87.43
2023-03-27T02:32:09.495Z,87.54
2023-03-27T02:33:08.532Z,87.65
2023-03-27T02:34:08.353Z,87.96
2023-03-27T02:35:08.334Z,87.85
2023-03-27T02:36:09.383Z,87.65
2023-03-27T02:37:08.395Z,87.75
2023-03-27T02:38:08.338Z,87.85
2023-03-27T02:39:08.280Z,87.60
2023-03-27T02:40:08.355Z,87.33
2023-03-27T02:41:08.269Z,87.33
2023-03-27T02:42:08.300Z,87.33
2023-03-27T02:43:08.493Z,87.54
2023-03-27T02:44:08.335Z,87.54
2023-03-27T02:45:08.285Z,87.33
2023-03-27T02:46:08.378Z,87.40
2023-03-27T02:47:08.378Z,87.60
2023-03-27T02:48:08.333Z,87.40
2023-03-27T02:49:08.200Z,87.19
2023-03-27T02:50:08.241Z,87.29
2023-03-27T02:51:08.210Z,87.29
2023-03-27T02:52:08.248Z,87.40
2023-03-27T02:53:08.248Z,87.33
2023-03-27T02:54:08.247Z,87.43
2023-03-27T02:55:08.164Z,87.33
2023-03-27T02:56:08.130Z,87.33
2023-03-27T02:57:08.254Z,87.08
2023-03-27T02:58:08.178Z,86.98
2023-03-27T02:59:08.113Z,86.81
2023-03-27T03:00:08.093Z,86.91
2023-03-27T03:01:08.137Z,87.02
2023-03-27T03:02:08.133Z,87.12
2023-03-27T03:03:08.127Z,87.02
2023-03-27T03:04:08.360Z,87.12
2023-03-27T03:05:08.023Z,87.23
2023-03-27T03:06:08.061Z,87.23
2023-03-27T03:07:08.054Z,87.43
2023-03-27T03:08:08.121Z,87.43
2023-03-27T03:09:07.971Z,87.54
2023-03-27T03:10:09.583Z,87.33
2023-03-27T03:11:08.070Z,87.33
2023-03-27T03:12:08.137Z,87.54
2023-03-27T03:13:07.953Z,87.65
2023-03-27T03:14:08.111Z,87.43
2023-03-27T03:15:07.919Z,87.33
2023-03-27T03:16:07.919Z,87.43
2023-03-27T03:17:07.949Z,87.43
2023-03-27T03:18:08.129Z,87.54
2023-03-27T03:19:07.949Z,87.75
2023-03-27T03:20:07.878Z,87.54
2023-03-27T03:21:07.850Z,87.75
2023-03-27T03:22:07.885Z,87.85
2023-03-27T03:23:07.937Z,87.54
2023-03-27T03:24:07.829Z,87.65
2023-03-27T03:25:07.876Z,87.75
2023-03-27T03:26:07.859Z,87.75
2023-03-27T03:27:07.806Z,87.89
2023-03-27T03:28:07.786Z,87.79
2023-03-27T03:29:07.768Z,87.79
2023-03-27T03:30:07.982Z,87.79
2023-03-27T03:31:07.772Z,87.99
2023-03-27T03:32:07.778Z,88.31
2023-03-27T03:33:07.759Z,88.10
2023-03-27T03:34:07.929Z,88.20
2023-03-27T03:35:07.708Z,88.20
2023-03-27T03:36:07.782Z,87.99
2023-03-27T03:37:07.691Z,87.99
2023-03-27T03:38:07.698Z,87.89
2023-03-27T03:39:07.650Z,87.79
2023-03-27T03:40:07.694Z,87.89
2023-03-27T03:41:07.642Z,87.99
2023-03-27T03:42:07.642Z,88.10
2023-03-27T03:43:07.655Z,88.42
2023-03-27T03:44:07.683Z,88.42
2023-03-27T03:45:07.606Z,88.42
2023-03-27T03:46:07.916Z,88.31
2023-03-27T03:47:07.586Z,88.52
2023-03-27T03:48:07.741Z,88.31
2023-03-27T03:49:07.616Z,88.20
2023-03-27T03:50:07.686Z,88.42
2023-03-27T03:51:07.537Z,88.10
2023-03-27T03:52:07.583Z,88.10
2023-03-27T03:53:07.534Z,88.20
2023-03-27T03:54:07.526Z,88.31
2023-03-27T03:55:07.502Z,88.31
2023-03-27T03:56:07.494Z,88.35
2023-03-27T03:57:07.545Z,88.24
2023-03-27T03:58:07.533Z,88.52
2023-03-27T03:59:07.463Z,88.62
2023-03-27T04:00:07.573Z,88.52
2023-03-27T04:01:07.475Z,88.73
2023-03-27T04:02:07.475Z,88.62
2023-03-27T04:03:07.536Z,88.52
2023-03-27T04:04:07.558Z,88.31
2023-03-27T04:05:08.941Z,88.20
2023-03-27T04:06:07.640Z,88.20
2023-03-27T04:07:07.360Z,88.10
2023-03-27T04:08:07.454Z,88.10
2023-03-27T04:09:07.357Z,87.99
2023-03-27T04:10:07.361Z,87.99
2023-03-27T04:11:07.315Z,88.10
2023-03-27T04:12:07.352Z,88.20
2023-03-27T04:13:07.333Z,88.31
2023-03-27T04:14:07.302Z,88.52
2023-03-27T04:15:07.307Z,88.42
2023-03-27T04:16:07.374Z,88.42
2023-03-27T04:17:07.362Z,88.31
2023-03-27T04:18:07.352Z,88.56
2023-03-27T04:19:07.402Z,88.66
2023-03-27T04:20:07.326Z,88.66
2023-03-27T04:21:07.212Z,88.56
2023-03-27T04:22:07.251Z,88.66
2023-03-27T04:23:07.232Z,88.98
2023-03-27T04:24:07.501Z,89.12
2023-03-27T04:25:07.234Z,89.22
2023-03-27T04:26:07.231Z,89.54
2023-03-27T04:27:07.169Z,89.75
2023-03-27T04:28:07.176Z,89.95
2023-03-27T04:29:07.210Z,90.10
2023-03-27T04:30:07.300Z,90.31
2023-03-27T04:31:07.180Z,90.62
2023-03-27T04:32:07.180Z,90.72
2023-03-27T04:33:07.121Z,90.72
2023-03-27T04:34:07.088Z,90.83
2023-03-27T04:35:07.296Z,90.93
2023-03-27T04:36:08.025Z,90.93
2023-03-27T04:37:07.049Z,91.08
2023-03-27T04:38:07.122Z,90.97
2023-03-27T04:39:07.068Z,91.18
2023-03-27T04:40:07.214Z,91.29
2023-03-27T04:41:07.039Z,91.39
2023-03-27T04:42:07.109Z,91.60
2023-03-27T04:43:07.046Z,91.96
2023-03-27T04:44:07.034Z,91.96
2023-03-27T04:45:06.999Z,92.16
2023-03-27T04:46:07.046Z,92.27
2023-03-27T04:48:07.012Z,92.58
2023-03-27T04:49:06.985Z,92.79
2023-03-27T04:50:06.991Z,93.10
2023-03-27T04:51:06.931Z,93.21
2023-03-27T04:52:06.919Z,93.31
2023-03-27T04:53:06.932Z,93.21
2023-03-27T04:54:06.926Z,93.31
2023-03-27T04:55:06.895Z,93.41
2023-03-27T04:56:06.974Z,93.63
2023-03-27T04:57:06.871Z,93.63
2023-03-27T04:58:06.886Z,93.63
2023-03-27T04:59:06.829Z,93.63
2023-03-27T05:00:06.857Z,93.63
2023-03-27T05:01:06.864Z,93.63
2023-03-27T05:02:06.932Z,93.67
2023-03-27T05:03:06.932Z,93.73
2023-03-27T05:04:06.855Z,93.84
2023-03-27T05:05:06.792Z,93.98
2023-03-27T05:06:06.792Z,94.09
2023-03-27T05:07:06.755Z,94.09
2023-03-27T05:08:06.872Z,93.98
2023-03-27T05:09:06.724Z,93.98
2023-03-27T05:10:06.775Z,93.98
2023-03-27T05:11:06.694Z,94.09
2023-03-27T05:12:06.759Z,94.19
2023-03-27T05:13:06.683Z,94.19
2023-03-27T05:14:06.760Z,94.09
2023-03-27T05:15:07.870Z,94.19
2023-03-27T05:16:08.327Z,94.29
2023-03-27T05:17:07.484Z,94.50
2023-03-27T05:18:09.297Z,94.50
2023-03-27T05:19:10.663Z,94.61
2023-03-27T05:20:07.397Z,94.71
2023-03-27T05:21:08.359Z,94.82
2023-03-27T05:22:07.384Z,94.82
2023-03-27T05:23:07.243Z,94.71
2023-03-27T05:24:07.120Z,94.61
2023-03-27T05:25:06.545Z,94.76
2023-03-27T05:26:06.635Z,94.76
2023-03-27T05:27:06.535Z,94.76
2023-03-27T05:28:06.631Z,94.86
2023-03-27T05:29:06.511Z,94.86
2023-03-27T05:30:06.552Z,94.96
2023-03-27T05:31:06.529Z,94.86
2023-03-27T05:32:06.601Z,94.86
2023-03-27T05:33:06.502Z,94.96
2023-03-27T05:34:06.499Z,94.96
2023-03-27T05:35:06.454Z,95.07
2023-03-27T05:36:06.897Z,95.17
2023-03-27T05:37:06.441Z,95.17
2023-03-27T05:38:06.519Z,95.28
2023-03-27T05:39:06.418Z,95.32
2023-03-27T05:40:06.465Z,95.21
2023-03-27T05:41:06.412Z,95.28
2023-03-27T05:42:06.389Z,95.43
2023-03-27T05:43:07.584Z,95.38
2023-03-27T05:44:06.395Z,95.49
2023-03-27T05:45:06.363Z,95.80
2023-03-27T05:46:06.503Z,95.90
2023-03-27T05:47:06.319Z,96.01
2023-03-27T05:48:06.362Z,95.90
2023-03-27T05:49:06.361Z,95.90
2023-03-27T05:50:06.347Z,96.01
2023-03-27T05:51:06.295Z,96.11
2023-03-27T05:52:06.415Z,96.01
2023-03-27T05:53:06.255Z,96.01
2023-03-27T05:54:06.462Z,96.11
2023-03-27T05:55:06.234Z,96.11
2023-03-27T05:56:06.250Z,96.22
2023-03-27T05:57:06.250Z,96.17
2023-03-27T05:58:06.210Z,96.17
2023-03-27T05:59:06.193Z,96.17
2023-03-27T06:00:06.270Z,96.28
2023-03-27T06:01:06.182Z,96.17
2023-03-27T06:02:06.420Z,96.28
2023-03-27T06:03:06.360Z,96.38
2023-03-27T06:04:06.253Z,96.28
2023-03-27T06:05:06.134Z,96.38
2023-03-27T06:06:06.138Z,96.28
2023-03-27T06:07:06.107Z,96.23
2023-03-27T06:08:06.176Z,96.23
2023-03-27T06:09:06.105Z,96.34
2023-03-27T06:10:06.162Z,96.44
2023-03-27T06:11:07.105Z,96.40
2023-03-27T06:12:06.119Z,96.50
2023-03-27T06:13:06.080Z,96.61
2023-03-27T06:14:06.123Z,96.61
2023-03-27T06:15:06.048Z,96.56
2023-03-27T06:16:06.179Z,96.56
2023-03-27T06:17:06.006Z,96.56
2023-03-27T06:18:06.252Z,96.67
2023-03-27T06:19:05.995Z,96.62
2023-03-27T06:20:05.997Z,96.52
2023-03-27T06:21:05.976Z,96.52
2023-03-27T06:22:05.995Z,96.48
2023-03-27T06:23:05.943Z,96.37
2023-03-27T06:24:05.996Z,96.26
2023-03-27T06:25:05.935Z,96.26
2023-03-27T06:26:06.024Z,96.33
2023-03-27T06:27:05.906Z,96.12
2023-03-27T06:28:06.042Z,95.87
2023-03-27T06:29:07.870Z,95.56
2023-03-27T06:30:05.875Z,95.09
2023-03-27T06:31:05.889Z,94.78
2023-03-27T06:32:05.848Z,94.22
2023-03-27T06:33:05.956Z,93.91
2023-03-27T06:34:05.835Z,93.70
2023-03-27T06:35:05.816Z,93.49
2023-03-27T06:36:05.886Z,93.07
2023-03-27T06:37:05.813Z,92.82
2023-03-27T06:38:05.781Z,92.93
2023-03-27T06:39:05.811Z,92.72
2023-03-27T06:40:05.817Z,92.51
2023-03-27T06:41:05.778Z,92.51
2023-03-27T06:42:05.785Z,92.26
2023-03-27T06:43:05.816Z,91.95
2023-03-27T06:44:05.724Z,91.85
2023-03-27T06:45:05.778Z,91.95
2023-03-27T06:46:05.814Z,91.74
2023-03-27T06:47:05.709Z,91.74
2023-03-27T06:48:16.268Z,91.85
2023-03-27T06:49:06.668Z,91.85
2023-03-27T06:50:05.743Z,91.95
2023-03-27T06:51:05.692Z,91.95
2023-03-27T06:52:05.644Z,92.01
2023-03-27T06:53:10.066Z,92.11
2023-03-27T06:54:06.636Z,92.01
2023-03-27T06:55:05.624Z,91.70
2023-03-27T06:56:06.656Z,91.45
2023-03-27T06:57:05.658Z,91.24
2023-03-27T06:58:05.568Z,91.24
2023-03-27T06:59:05.556Z,91.03
2023-03-27T07:00:05.573Z,91.03
2023-03-27T07:01:05.549Z,90.93
2023-03-27T07:02:05.716Z,90.72
2023-03-27T07:03:05.556Z,90.52
2023-03-27T07:04:05.503Z,90.52
2023-03-27T07:05:05.725Z,90.62
2023-03-27T07:06:05.538Z,90.52
2023-03-27T07:07:05.470Z,90.41
2023-03-27T07:08:18.700Z,90.31
2023-03-27T07:09:06.458Z,90.27
2023-03-27T07:10:06.021Z,90.06
2023-03-27T07:11:11.606Z,90.06
2023-03-27T07:12:06.462Z,90.17
2023-03-27T07:13:05.496Z,89.65
2023-03-27T07:14:05.418Z,89.44
2023-03-27T07:15:05.426Z,89.34
2023-03-27T07:16:05.673Z,89.54
2023-03-27T07:17:06.491Z,89.44
2023-03-27T07:18:05.412Z,89.44
2023-03-27T07:19:05.370Z,89.65
2023-03-27T07:20:05.372Z,89.92
2023-03-27T07:21:05.330Z,89.81
2023-03-27T07:22:05.334Z,89.81
2023-03-27T07:23:05.299Z,89.92
2023-03-27T07:24:05.286Z,89.81
2023-03-27T07:25:05.354Z,89.92
2023-03-27T07:26:05.423Z,89.77
2023-03-27T07:27:05.262Z,89.77
2023-03-27T07:28:06.364Z,89.25
2023-03-27T07:29:05.366Z,89.25
2023-03-27T07:30:05.242Z,89.25
2023-03-27T07:32:08.069Z,87.38
2023-03-27T07:33:05.319Z,87.07
2023-03-27T07:34:05.341Z,86.72
2023-03-27T07:35:05.191Z,86.10
2023-03-27T07:36:05.224Z,85.17
2023-03-27T07:37:05.195Z,85.58
2023-03-27T07:38:05.166Z,85.27
2023-03-27T07:39:05.127Z,85.58
2023-03-27T07:40:05.168Z,85.58
2023-03-27T07:41:05.118Z,85.79
2023-03-27T07:42:05.124Z,86.00
2023-03-27T07:43:05.084Z,85.58
2023-03-27T07:44:05.108Z,85.06
2023-03-27T07:45:05.096Z,85.27
2023-03-27T07:46:05.168Z,85.27
2023-03-27T07:47:05.042Z,85.27
2023-03-27T07:48:05.118Z,84.72
2023-03-27T07:49:05.028Z,84.09
2023-03-27T07:50:05.072Z,83.75
2023-03-27T07:51:13.502Z,83.64
2023-03-27T07:52:05.995Z,83.75
2023-03-27T07:53:04.993Z,83.12
2023-03-27T07:54:04.994Z,83.29
2023-03-27T07:55:04.949Z,83.67
2023-03-27T07:56:04.958Z,82.64
2023-03-27T07:57:05.023Z,81.67
2023-03-27T07:58:04.972Z,82.08
2023-03-27T07:59:04.920Z,81.77
2023-03-27T08:00:05.262Z,81.11
2023-03-27T08:01:04.914Z,80.90
2023-03-27T08:02:04.941Z,81.73
2023-03-27T08:03:05.012Z,80.74
2023-03-27T08:04:04.929Z,80.32
2023-03-27T08:05:05.038Z,81.67
2023-03-27T08:06:05.268Z,81.56
2023-03-27T08:07:04.869Z,80.63
2023-03-27T08:08:05.166Z,81.11
2023-03-27T08:09:04.809Z,80.70
2023-03-27T08:10:04.814Z,81.49
2023-03-27T08:11:04.812Z,79.73
2023-03-27T08:12:04.937Z,80.66
2023-03-27T08:13:04.752Z,79.73
2023-03-27T08:14:04.980Z,79.08
2023-03-27T08:15:04.736Z,77.80
2023-03-27T08:16:04.826Z,76.77
2023-03-27T08:17:15.055Z,76.46
2023-03-27T08:18:05.767Z,77.22
2023-03-27T08:19:04.743Z,76.90
2023-03-27T08:20:04.717Z,77.08
2023-03-27T08:21:04.693Z,75.39
2023-03-27T08:22:04.703Z,76.32
2023-03-27T08:23:04.648Z,75.81
2023-03-27T08:24:04.693Z,75.63
2023-03-27T08:25:04.653Z,75.43
2023-03-27T08:26:04.676Z,76.01
2023-03-27T08:27:04.604Z,76.01
2023-03-27T08:28:04.716Z,75.84
2023-03-27T08:29:04.592Z,73.98
2023-03-27T08:30:04.675Z,73.88
2023-03-27T08:31:04.642Z,73.68
2023-03-27T08:32:04.654Z,72.44
2023-03-27T08:33:04.589Z,71.37
2023-03-27T08:34:04.594Z,70.21
2023-03-27T08:35:04.516Z,69.70
2023-03-27T08:36:04.588Z,70.45
2023-03-27T08:37:04.521Z,69.42
2023-03-27T08:38:07.352Z,69.86
2023-03-27T08:39:05.473Z,70.89
2023-03-27T08:40:04.510Z,72.23
2023-03-27T08:41:04.471Z,72.33
2023-03-27T08:42:04.858Z,72.85
2023-03-27T08:43:04.439Z,71.85
2023-03-27T08:44:04.457Z,71.23
2023-03-27T08:45:04.408Z,74.50
2023-03-27T08:46:04.494Z,74.05
2023-03-27T08:47:04.415Z,75.08
2023-03-27T08:48:04.536Z,75.84
2023-03-27T08:49:04.372Z,75.63
2023-03-27T08:50:04.367Z,75.15
2023-03-27T08:51:04.431Z,74.02
2023-03-27T08:52:04.410Z,75.09
2023-03-27T08:53:04.326Z,74.98
2023-03-27T08:54:04.441Z,75.70
2023-03-27T08:55:04.333Z,75.84
2023-03-27T08:56:04.392Z,76.35
2023-03-27T08:57:04.332Z,76.67
2023-03-27T08:58:04.314Z,75.32
2023-03-27T08:59:04.296Z,74.95
2023-03-27T09:00:04.277Z,75.57
2023-03-27T09:01:04.264Z,76.08
2023-03-27T09:02:04.320Z,75.87
2023-03-27T09:03:04.317Z,75.53
2023-03-27T09:04:04.265Z,75.32
2023-03-27T09:05:04.382Z,74.46
2023-03-27T09:06:04.561Z,72.30
2023-03-27T09:07:04.369Z,71.26
2023-03-27T09:08:04.237Z,70.96
2023-03-27T09:09:04.323Z,70.72
2023-03-27T09:10:04.172Z,70.31
2023-03-27T09:11:04.229Z,69.48
2023-03-27T09:12:04.141Z,67.97
2023-03-27T09:13:04.141Z,67.45
2023-03-27T09:14:04.133Z,67.76
2023-03-27T09:15:04.127Z,69.41
2023-03-27T09:16:04.278Z,69.31
2023-03-27T09:17:04.294Z,69.93
2023-03-27T09:18:04.404Z,71.06
2023-03-27T09:19:04.050Z,72.50
2023-03-27T09:20:04.156Z,71.92
2023-03-27T09:21:04.094Z,72.19
2023-03-27T09:22:04.051Z,73.09
2023-03-27T09:23:04.016Z,68.66
2023-03-27T09:24:04.111Z,69.45
2023-03-27T09:25:03.988Z,68.42
2023-03-27T09:26:03.998Z,67.46
2023-03-27T09:27:07.327Z,67.57
2023-03-27T09:28:03.980Z,66.43
2023-03-27T09:29:03.936Z,67.39
2023-03-27T09:30:05.840Z,67.29
2023-03-27T09:31:03.924Z,67.52
2023-03-27T09:32:03.926Z,68.86
2023-03-27T09:33:03.921Z,69.41
2023-03-27T09:34:03.939Z,70.13
2023-03-27T09:35:03.870Z,72.33
2023-03-27T09:36:03.910Z,73.60
2023-03-27T09:37:03.841Z,74.67
2023-03-27T09:38:04.017Z,75.95
2023-03-27T09:39:03.865Z,76.91
2023-03-27T09:40:03.812Z,77.56
2023-03-27T09:41:03.820Z,77.50
2023-03-27T09:42:07.220Z,78.33
2023-03-27T09:43:03.845Z,79.47
2023-03-27T09:44:03.841Z,79.77
2023-03-27T09:45:03.774Z,79.19
2023-03-27T09:46:04.063Z,80.71
2023-03-27T09:47:03.773Z,81.02
2023-03-27T09:48:03.812Z,81.43
2023-03-27T09:49:03.731Z,81.54
2023-03-27T09:50:03.724Z,81.23
2023-03-27T09:51:03.705Z,81.02
2023-03-27T09:52:03.724Z,80.81
2023-03-27T09:53:03.669Z,80.15
2023-03-27T09:54:03.669Z,79.60
2023-03-27T09:55:03.653Z,79.56
2023-03-27T09:56:03.713Z,80.76
2023-03-27T09:57:03.671Z,80.69
2023-03-27T09:58:03.652Z,78.24
2023-03-27T09:59:03.605Z,77.80
2023-03-27T10:00:03.633Z,76.11
2023-03-27T10:01:03.651Z,76.28
2023-03-27T10:02:04.221Z,74.43
2023-03-27T10:03:03.774Z,74.91
2023-03-27T10:04:04.338Z,74.36
2023-03-27T10:05:03.557Z,75.76
2023-03-27T10:06:03.609Z,71.31
2023-03-27T10:07:03.520Z,70.08
2023-03-27T10:08:03.615Z,69.98
2023-03-27T10:09:03.508Z,68.40
2023-03-27T10:10:03.642Z,68.40
2023-03-27T10:11:03.499Z,69.26
2023-03-27T10:12:03.497Z,69.05
2023-03-27T10:13:03.462Z,67.17
2023-03-27T10:14:03.468Z,62.55
2023-03-27T10:15:03.434Z,59.16
2023-03-27T10:16:03.489Z,59.11
2023-03-27T10:17:03.460Z,60.24
2023-03-27T10:18:03.460Z,62.14
2023-03-27T10:19:03.400Z,61.60
2023-03-27T10:20:03.460Z,60.88
2023-03-27T10:21:03.389Z,61.77
2023-03-27T10:22:03.392Z,60.41
2023-03-27T10:23:03.390Z,60.89
2023-03-27T10:24:03.395Z,59.25
2023-03-27T10:25:03.328Z,59.97
2023-03-27T10:26:03.387Z,60.41
2023-03-27T10:27:03.320Z,60.26
2023-03-27T10:28:03.298Z,61.11
2023-03-27T10:29:03.303Z,61.44
2023-03-27T10:30:03.348Z,61.99
2023-03-27T10:31:03.314Z,63.32
2023-03-27T10:32:03.386Z,63.46
2023-03-27T10:33:03.285Z,61.81
2023-03-27T10:34:03.237Z,60.22
2023-03-27T10:35:03.240Z,62.25
2023-03-27T10:36:03.345Z,61.66
2023-03-27T10:37:03.244Z,62.38
2023-03-27T10:38:03.333Z,63.13
2023-03-27T10:39:03.179Z,64.47
2023-03-27T10:40:03.233Z,62.96
2023-03-27T10:41:03.163Z,62.90
2023-03-27T10:42:03.161Z,61.53
2023-03-27T10:43:03.130Z,60.45
2023-03-27T10:44:03.221Z,60.21
2023-03-27T10:45:03.127Z,58.54
2023-03-27T10:46:03.173Z,60.49
2023-03-27T10:47:03.132Z,59.75
2023-03-27T10:48:03.178Z,59.72
2023-03-27T10:49:03.067Z,57.87
2023-03-27T10:50:03.189Z,55.79
2023-03-27T10:51:03.077Z,54.28
2023-03-27T10:52:03.064Z,54.97
2023-03-27T10:53:03.078Z,57.43
2023-03-27T10:54:03.175Z,55.38
2023-03-27T10:55:03.003Z,54.74
2023-03-27T10:56:03.049Z,56.49
2023-03-27T10:57:03.089Z,54.74
2023-03-27T10:58:03.046Z,55.15
2023-03-27T10:59:02.992Z,56.49
2023-03-27T11:00:03.035Z,57.79
2023-03-27T11:01:03.048Z,57.56
2023-03-27T11:02:02.976Z,56.30
2023-03-27T11:03:02.922Z,53.54
2023-03-27T11:04:03.000Z,54.36
2023-03-27T11:05:02.895Z,53.87
2023-03-27T11:06:02.957Z,56.26
2023-03-27T11:07:02.862Z,54.72
2023-03-27T11:08:02.929Z,55.05
2023-03-27T11:09:02.851Z,56.90
2023-03-27T11:10:02.831Z,58.46
2023-03-27T11:11:02.862Z,58.56
2023-03-27T11:12:02.881Z,61.10
2023-03-27T11:13:02.816Z,59.28
2023-03-27T11:14:02.800Z,58.90
2023-03-27T11:15:02.805Z,59.41
2023-03-27T11:16:02.814Z,59.80
2023-03-27T11:17:02.839Z,57.92
2023-03-27T11:18:02.804Z,54.74
2023-03-27T11:19:02.833Z,55.98
2023-03-27T11:20:02.734Z,56.15
2023-03-27T11:21:02.761Z,55.02
2023-03-27T11:22:02.777Z,55.85
2023-03-27T11:23:02.733Z,54.28
2023-03-27T11:24:02.790Z,55.79
2023-03-27T11:25:02.679Z,55.72
2023-03-27T11:26:02.814Z,56.77
2023-03-27T11:27:02.658Z,56.71
2023-03-27T11:28:02.739Z,58.05
2023-03-27T11:29:02.638Z,58.36
2023-03-27T11:30:02.640Z,56.85
2023-03-27T11:31:12.288Z,56.74
2023-03-27T11:32:03.681Z,54.05
2023-03-27T11:33:02.675Z,55.46
2023-03-27T11:34:02.615Z,54.64
2023-03-27T11:35:04.048Z,57.48
2023-03-27T11:36:02.752Z,58.89
2023-03-27T11:37:02.549Z,58.76
2023-03-27T11:38:02.596Z,57.33
2023-03-27T11:39:02.545Z,57.43
2023-03-27T11:40:02.575Z,58.25
2023-03-27T11:41:02.535Z,58.45
2023-03-27T11:42:02.549Z,57.66
2023-03-27T11:43:02.484Z,56.23
2023-03-27T11:44:02.585Z,57.33
2023-03-27T11:45:02.465Z,57.23
2023-03-27T11:46:02.522Z,55.79
2023-03-27T11:47:02.453Z,55.82
2023-03-27T11:48:02.529Z,55.30
2023-03-27T11:49:02.418Z,55.10
2023-03-27T11:50:02.452Z,55.26
2023-03-27T11:51:02.404Z,55.66
2023-03-27T11:52:02.602Z,57.54
2023-03-27T11:53:02.380Z,57.84
2023-03-27T11:54:02.385Z,58.18
2023-03-27T11:55:02.359Z,58.92
2023-03-27T11:56:02.371Z,59.75
2023-03-27T11:57:02.469Z,61.42
2023-03-27T11:58:02.334Z,64.15
2023-03-27T11:59:02.333Z,65.62
2023-03-27T12:00:02.372Z,68.77
2023-03-27T12:01:02.302Z,69.93
2023-03-27T12:02:02.426Z,71.30
2023-03-27T12:03:02.410Z,71.99
2023-03-27T12:04:02.391Z,69.86
2023-03-27T12:05:02.252Z,70.65
2023-03-27T12:06:02.446Z,72.09
2023-03-27T12:07:04.826Z,70.76
2023-03-27T12:08:02.280Z,74.26
2023-03-27T12:09:02.212Z,72.44
2023-03-27T12:10:02.214Z,69.53
2023-03-27T12:11:02.195Z,71.93
2023-03-27T12:12:02.221Z,70.66
2023-03-27T12:13:02.214Z,70.15
2023-03-27T12:14:03.416Z,71.66
2023-03-27T12:15:02.178Z,70.01
2023-03-27T12:16:02.186Z,67.86
2023-03-27T12:17:02.124Z,66.01
2023-03-27T12:18:02.260Z,63.98
2023-03-27T12:19:08.066Z,67.44
2023-03-27T12:20:03.206Z,63.47
2023-03-27T12:21:02.294Z,64.32
2023-03-27T12:22:05.287Z,64.94
2023-03-27T12:23:03.074Z,65.14
2023-03-27T12:24:02.051Z,66.10
2023-03-27T12:25:02.025Z,65.28
2023-03-27T12:26:02.151Z,63.46
2023-03-27T12:27:02.715Z,64.72
2023-03-27T12:28:02.049Z,65.86
2023-03-27T12:29:02.024Z,66.91
2023-03-27T12:30:02.032Z,68.59
2023-03-27T12:31:02.008Z,71.61
2023-03-27T12:32:02.113Z,73.60
2023-03-27T12:33:01.946Z,75.29
2023-03-27T12:34:01.952Z,77.15
2023-03-27T12:35:01.915Z,77.87
2023-03-27T12:36:02.083Z,76.04
2023-03-27T12:37:01.902Z,76.70
2023-03-27T12:38:01.894Z,78.14
2023-03-27T12:39:01.910Z,78.66
2023-03-27T12:40:01.872Z,80.21
2023-03-27T12:41:01.863Z,79.90
2023-03-27T12:42:01.862Z,80.11
2023-03-27T12:43:01.888Z,80.04
2023-03-27T12:44:01.947Z,79.52
2023-03-27T12:45:01.829Z,80.66
2023-03-27T12:46:02.038Z,82.21
2023-03-27T12:47:01.794Z,81.70
2023-03-27T12:48:01.835Z,80.66
2023-03-27T12:49:01.757Z,79.94
2023-03-27T12:50:01.757Z,80.87
2023-03-27T12:51:01.760Z,80.52
2023-03-27T12:52:01.731Z,80.73
2023-03-27T12:53:01.764Z,80.93
2023-03-27T12:54:01.715Z,80.83